Time;durP1;ratioP1;P1;durP2;ratioP2;P2;SDS_P1;SDS_P2;PMS_P1;PMS_P2;Temp;Humidity;BMP_temperature;BMP_pressure;BME280_temperature;BME280_humidity;BME280_pressure;Samples;Min_cycle;Max_cycle;Signal;HPM_P1;HPM_P2
2022/03/20 00:00:09;;;;;;;5.17;4.27;;;8.30;59.40;;;10.89;48.20;103865.84;5015900;28;20203;-51
2022/03/20 00:02:39;;;;;;;7.43;4.37;;;8.30;59.60;;;10.85;48.28;103870.50;5014113;28;20234;-52
2022/03/20 00:05:08;;;;;;;7.50;4.57;;;8.20;59.80;;;10.80;48.55;103861.19;5016188;28;20278;-50
2022/03/20 00:07:38;;;;;;;8.23;5.03;;;8.20;59.90;;;10.77;48.87;103859.59;5015659;28;20221;-49
2022/03/20 00:10:08;;;;;;;8.40;4.77;;;8.20;59.90;;;10.78;48.35;103861.28;5015846;28;20187;-51
2022/03/20 00:12:36;;;;;;;8.77;5.10;;;8.20;60.00;;;10.73;48.44;103852.00;5015235;28;20526;-50
2022/03/20 00:15:05;;;;;;;7.27;4.57;;;8.20;60.00;;;10.71;48.49;103838.94;5016303;28;20213;-51
2022/03/20 00:17:32;;;;;;;12.40;5.30;;;8.10;60.10;;;10.68;49.21;103847.03;5015621;28;20601;-51
2022/03/20 00:20:02;;;;;;;9.90;5.17;;;8.10;60.20;;;10.67;49.00;103841.88;5009143;28;20219;-50
2022/03/20 00:22:31;;;;;;;8.60;4.93;;;8.10;60.30;;;10.63;49.21;103840.34;4998870;28;20263;-51
2022/03/20 00:24:58;;;;;;;7.23;5.40;;;8.00;60.40;;;10.61;48.86;103842.25;5002940;28;20192;-53
2022/03/20 00:27:26;;;;;;;6.73;5.43;;;8.00;60.20;;;10.60;48.74;103841.38;5005218;28;20303;-51
2022/03/20 00:29:54;;;;;;;9.00;5.87;;;8.00;60.30;;;10.59;49.27;103837.09;5006662;28;20196;-52
2022/03/20 00:32:22;;;;;;;8.40;5.83;;;7.90;60.40;;;10.55;49.26;103838.22;5016113;28;20623;-51
2022/03/20 00:34:49;;;;;;;10.87;5.53;;;7.90;60.50;;;10.53;48.81;103837.44;5024831;28;20672;-52
2022/03/20 00:37:18;;;;;;;8.27;6.33;;;7.90;60.40;;;10.51;48.66;103841.97;5010989;28;20304;-50
2022/03/20 00:39:45;;;;;;;8.93;6.03;;;7.90;60.40;;;10.52;48.81;103833.16;5005815;28;20234;-53
2022/03/20 00:42:12;;;;;;;11.27;6.07;;;7.90;60.50;;;10.53;49.20;103824.28;5002018;28;20714;-53
2022/03/20 00:44:40;;;;;;;10.90;5.77;;;7.90;60.40;;;10.54;49.04;103822.50;5001840;28;20214;-51
2022/03/20 00:47:07;;;;;;;9.30;6.30;;;7.80;60.40;;;10.50;48.59;103824.50;5001813;28;20239;-50
2022/03/20 00:49:35;;;;;;;12.73;7.80;;;7.90;60.40;;;10.47;48.50;103822.06;5002460;28;20215;-51
2022/03/20 00:52:04;;;;;;;9.13;6.73;;;7.80;60.30;;;10.45;48.69;103818.69;5003972;28;20226;-52
2022/03/20 00:54:33;;;;;;;9.73;6.70;;;7.80;60.10;;;10.46;48.95;103816.91;5021465;28;20222;-52
2022/03/20 00:57:00;;;;;;;12.43;7.97;;;7.80;60.10;;;10.39;48.91;103811.16;5020441;28;20218;-50
2022/03/20 00:59:28;;;;;;;8.67;7.03;;;7.80;60.30;;;10.35;48.52;103809.66;5020884;28;20251;-53
2022/03/20 01:01:55;;;;;;;10.20;8.00;;;7.70;60.20;;;10.30;48.99;103809.09;5020040;28;20199;-50
2022/03/20 01:04:23;;;;;;;11.53;7.37;;;7.70;60.10;;;10.28;49.01;103808.38;5019957;28;20206;-51
2022/03/20 01:06:50;;;;;;;11.87;8.20;;;7.70;60.20;;;10.27;48.91;103804.03;5017927;28;20592;-49
2022/03/20 01:09:19;;;;;;;13.20;8.40;;;7.70;60.30;;;10.25;49.01;103803.28;5010829;28;20204;-52
2022/03/20 01:11:47;;;;;;;8.77;7.57;;;7.60;60.30;;;10.24;48.69;103798.97;5010110;28;20716;-53
2022/03/20 01:14:15;;;;;;;11.50;7.83;;;7.60;60.20;;;10.26;48.43;103794.47;5018574;28;20271;-52
2022/03/20 01:16:42;;;;;;;10.07;8.10;;;7.60;60.20;;;10.29;48.94;103794.28;5016696;28;20333;-51
2022/03/20 01:19:09;;;;;;;9.93;7.67;;;7.60;60.30;;;10.30;48.86;103795.94;5018293;28;20195;-52
2022/03/20 01:21:37;;;;;;;11.90;8.03;;;7.60;60.20;;;10.29;48.62;103796.91;5018505;28;20210;-50
2022/03/20 01:24:05;;;;;;;12.30;8.50;;;7.60;60.10;;;10.28;48.71;103797.84;5017780;28;20207;-49
2022/03/20 01:26:32;;;;;;;12.07;8.13;;;7.60;60.00;;;10.28;48.35;103792.56;5003730;28;20222;-50
2022/03/20 01:29:02;;;;;;;12.13;8.10;;;7.60;60.00;;;10.27;48.52;103796.13;5000457;28;20217;-51
2022/03/20 01:31:29;;;;;;;12.37;8.10;;;7.60;60.00;;;10.24;48.23;103788.44;5004658;28;20223;-51
2022/03/20 01:33:58;;;;;;;11.20;7.37;;;7.60;60.10;;;10.21;48.31;103780.75;5022324;28;20222;-52
2022/03/20 01:36:25;;;;;;;12.07;8.07;;;7.50;60.10;;;10.23;48.64;103783.25;5025594;28;20209;-52
2022/03/20 01:38:53;;;;;;;11.47;8.63;;;7.50;60.10;;;10.22;48.69;103779.81;5027792;28;20203;-51
2022/03/20 01:41:21;;;;;;;10.80;8.20;;;7.50;60.20;;;10.21;48.26;103772.84;5023602;28;20202;-52
2022/03/20 01:43:50;;;;;;;11.40;7.97;;;7.50;60.00;;;10.20;48.59;103774.63;5022143;28;20206;-49
2022/03/20 01:46:19;;;;;;;12.77;8.37;;;7.50;60.10;;;10.16;48.41;103767.88;5021296;28;20620;-52
2022/03/20 01:48:46;;;;;;;10.83;7.80;;;7.50;60.10;;;10.13;48.21;103761.94;5023038;28;20191;-51
2022/03/20 01:51:15;;;;;;;10.07;8.37;;;7.40;60.00;;;10.04;49.08;103763.34;5023316;28;20225;-50
2022/03/20 01:53:43;;;;;;;10.67;7.77;;;7.40;60.30;;;10.00;48.62;103750.47;5023566;28;20210;-50
2022/03/20 01:56:10;;;;;;;11.90;8.57;;;7.40;60.10;;;9.95;48.77;103748.16;5022514;28;20192;-51
2022/03/20 01:58:38;;;;;;;13.97;8.77;;;7.30;60.30;;;9.88;49.05;103751.25;5019055;28;20713;-51
2022/03/20 02:01:05;;;;;;;12.83;9.23;;;7.30;60.50;;;9.84;49.39;103739.25;5020261;28;20195;-52
2022/03/20 02:03:34;;;;;;;10.97;8.90;;;7.20;60.50;;;9.79;49.28;103736.03;5020170;28;20195;-51
2022/03/20 02:06:01;;;;;;;11.53;8.57;;;7.20;60.80;;;9.79;49.12;103726.38;5019935;28;20195;-52
2022/03/20 02:08:33;;;;;;;13.70;9.40;;;7.10;60.90;;;9.77;49.33;103732.66;5020244;28;20222;-50
2022/03/20 02:11:00;;;;;;;13.40;9.63;;;7.10;60.70;;;9.69;49.17;103724.41;5021015;28;20177;-49
2022/03/20 02:13:27;;;;;;;13.07;10.13;;;7.10;60.60;;;9.68;49.39;103712.19;5021666;28;20219;-50
2022/03/20 02:15:55;;;;;;;12.70;9.43;;;7.10;60.70;;;9.62;49.71;103729.19;5019928;28;20195;-50
2022/03/20 02:18:24;;;;;;;12.37;9.80;;;7.00;60.80;;;9.60;49.34;103711.81;5019581;28;20213;-53
2022/03/20 02:20:55;;;;;;;12.67;9.60;;;6.90;61.10;;;9.57;49.49;103715.47;5020991;28;20190;-50
2022/03/20 02:23:23;;;;;;;13.63;9.77;;;7.00;61.00;;;9.57;49.51;103709.38;5020664;28;20526;-48
2022/03/20 02:25:51;;;;;;;13.63;9.97;;;6.90;60.90;;;9.53;49.38;103709.56;5020543;28;20191;-51
2022/03/20 02:28:19;;;;;;;13.30;10.10;;;6.90;61.10;;;9.52;49.62;103707.88;5020506;28;20212;-51
2022/03/20 02:30:46;;;;;;;11.73;9.57;;;6.90;61.00;;;9.49;49.47;103702.81;4992696;28;20292;-52
2022/03/20 02:33:14;;;;;;;12.63;9.23;;;6.80;61.10;;;9.49;49.20;103704.59;5018199;28;20233;-53
2022/03/20 02:35:42;;;;;;;10.83;9.73;;;6.80;61.10;;;9.45;49.53;103701.31;5018888;28;20204;-49
2022/03/20 02:38:10;;;;;;;11.93;9.53;;;6.80;61.30;;;9.42;49.83;103695.38;5018638;28;20712;-49
2022/03/20 02:40:39;;;;;;;12.50;10.13;;;6.80;61.30;;;9.38;49.83;103689.47;5019476;28;20206;-50
2022/03/20 02:43:07;;;;;;;13.83;10.37;;;6.80;61.40;;;9.34;49.73;103682.69;5018548;28;20215;-51
2022/03/20 02:45:35;;;;;;;13.13;10.03;;;6.70;61.40;;;9.35;49.83;103676.53;5018343;28;20201;-50
2022/03/20 02:48:04;;;;;;;15.20;10.83;;;6.70;61.40;;;9.36;49.69;103675.59;5018767;28;20637;-51
2022/03/20 02:50:34;;;;;;;13.90;10.87;;;6.70;61.60;;;9.32;49.52;103666.19;5019404;28;20199;-49
2022/03/20 02:53:05;;;;;;;12.07;10.77;;;6.60;61.50;;;9.27;49.92;103668.25;5018806;28;20583;-51
2022/03/20 02:55:37;;;;;;;13.93;11.17;;;6.70;61.70;;;9.29;49.95;103668.19;5018026;28;20275;-51
2022/03/20 02:58:11;;;;;;;14.30;11.07;;;6.60;61.80;;;9.26;49.87;103674.47;5018089;28;20572;-50
2022/03/20 03:00:41;;;;;;;14.50;11.60;;;6.60;61.70;;;9.21;49.80;103666.00;5019372;28;20209;-52
2022/03/20 03:03:13;;;;;;;14.50;11.17;;;6.60;61.70;;;9.19;49.85;103667.88;5006938;28;20196;-49
2022/03/20 03:05:42;;;;;;;13.10;10.43;;;6.50;61.70;;;9.20;49.72;103669.56;4999018;28;20271;-50
2022/03/20 03:10:59;;;;;;;13.23;10.57;;;6.50;61.90;;;9.19;49.94;103661.78;4998630;28;20272;-50
2022/03/20 03:13:31;;;;;;;16.63;12.50;;;6.50;61.90;;;9.18;50.06;103676.69;4998161;28;20675;-50
2022/03/20 03:16:01;;;;;;;14.80;11.50;;;6.50;62.00;;;9.19;49.81;103667.88;4998747;28;20572;-49
2022/03/20 03:18:30;;;;;;;16.17;11.47;;;6.50;61.90;;;9.23;49.79;103660.66;4998612;28;20238;-50
2022/03/20 03:20:59;;;;;;;14.63;11.43;;;6.50;62.00;;;9.26;49.48;103663.09;4998949;28;20196;-48
2022/03/20 03:23:27;;;;;;;16.23;11.93;;;6.50;61.70;;;9.25;49.74;103657.00;4998588;28;20272;-51
2022/03/20 03:25:55;;;;;;;17.03;11.80;;;6.50;61.50;;;9.27;49.57;103660.38;4998494;28;20195;-50
2022/03/20 03:28:28;;;;;;;15.73;12.13;;;6.50;62.20;;;9.28;49.34;103651.56;4998102;28;20218;-51
2022/03/20 03:30:58;;;;;;;17.00;11.20;;;6.50;61.00;;;9.25;48.99;103651.72;4998438;28;20224;-53
2022/03/20 03:33:26;;;;;;;13.37;11.50;;;6.50;60.90;;;9.22;49.33;103646.66;5016094;28;20340;-49
2022/03/20 03:35:54;;;;;;;17.10;12.27;;;6.50;60.70;;;9.20;49.26;103645.91;5015983;28;20199;-50
2022/03/20 03:38:34;;;;;;;14.17;11.80;;;6.50;60.80;;;9.15;48.93;103639.28;5016458;28;20218;-49
2022/03/20 03:41:03;;;;;;;17.13;13.20;;;6.50;60.70;;;9.09;49.03;103635.22;5017150;28;20214;-50
2022/03/20 03:43:31;;;;;;;14.07;11.73;;;6.40;60.60;;;9.08;49.19;103632.69;5016388;28;20539;-50
2022/03/20 03:46:00;;;;;;;14.10;12.27;;;6.40;60.40;;;9.08;49.11;103628.28;5016864;28;20233;-51
2022/03/20 03:48:27;;;;;;;16.50;12.67;;;6.40;60.50;;;9.09;48.93;103635.22;5016566;28;20223;-50
2022/03/20 03:50:55;;;;;;;16.60;13.27;;;6.40;60.40;;;9.10;48.81;103641.34;5011561;28;20552;-49
2022/03/20 03:53:23;;;;;;;17.67;12.90;;;6.40;60.20;;;9.11;49.14;103633.34;5011518;28;20227;-49
2022/03/20 03:55:50;;;;;;;16.87;13.00;;;6.40;60.00;;;9.11;48.78;103630.72;4998427;28;20192;-49
2022/03/20 03:58:18;;;;;;;16.80;12.80;;;6.40;60.00;;;9.10;48.80;103623.78;4998907;28;20341;-50
2022/03/20 04:00:46;;;;;;;15.00;12.20;;;6.40;59.80;;;9.07;48.30;103631.00;5000963;28;20275;-52
2022/03/20 04:03:15;;;;;;;18.70;13.60;;;6.40;59.80;;;9.03;48.25;103619.84;5018294;28;20230;-53
2022/03/20 04:05:42;;;;;;;16.50;12.47;;;6.40;59.70;;;9.03;48.37;103619.84;5020065;28;20219;-49
2022/03/20 04:08:10;;;;;;;15.00;11.87;;;6.30;59.60;;;9.03;48.52;103619.84;5011811;28;20232;-51
2022/03/20 04:10:37;;;;;;;15.53;12.90;;;6.30;59.80;;;9.05;48.17;103611.88;4999332;28;20686;-52
2022/03/20 04:13:05;;;;;;;16.60;12.43;;;6.30;59.60;;;9.04;48.29;103616.25;4998418;28;20247;-50
2022/03/20 04:15:33;;;;;;;17.83;13.30;;;6.30;59.60;;;9.01;48.18;103616.44;4997270;28;20199;-51
2022/03/20 04:18:01;;;;;;;17.13;12.43;;;6.30;59.40;;;9.00;48.08;103609.53;4996857;28;20223;-50
2022/03/20 04:20:30;;;;;;;16.77;13.20;;;6.30;59.40;;;8.99;48.15;103607.81;4997517;28;20276;-52
2022/03/20 04:25:43;;;;;;;16.73;12.70;;;6.30;59.30;;;8.97;48.22;103599.19;4999272;28;20206;-53
2022/03/20 04:28:11;;;;;;;19.07;13.53;;;6.30;59.30;;;8.97;48.12;103601.81;4998798;28;20662;-51
2022/03/20 04:30:38;;;;;;;16.47;12.17;;;6.20;59.20;;;8.95;48.22;103605.47;5002151;28;20287;-51
2022/03/20 04:33:06;;;;;;;17.53;14.00;;;6.20;59.10;;;8.95;47.94;103595.81;5018429;28;20686;-50
2022/03/20 04:35:34;;;;;;;17.67;13.00;;;6.20;59.00;;;8.95;47.82;103590.56;5022321;28;20203;-53
2022/03/20 04:38:04;;;;;;;15.97;12.90;;;6.20;59.10;;;8.96;47.46;103591.41;5020103;28;20262;-50
2022/03/20 04:40:32;;;;;;;20.03;13.30;;;6.20;59.00;;;8.96;47.83;103591.41;5007308;28;20204;-51
2022/03/20 04:42:59;;;;;;;17.07;13.23;;;6.20;58.90;;;8.92;47.98;103593.38;4994641;28;20204;-52
2022/03/20 04:45:27;;;;;;;17.47;13.47;;;6.20;58.80;;;8.91;47.43;103588.22;4994785;28;20665;-50
2022/03/20 04:59:00;;;;;;;17.33;12.87;;;6.10;58.60;;;8.92;47.39;103596.00;5013936;28;20187;-52
2022/03/20 05:01:28;;;;;;;17.80;13.37;;;6.20;58.70;;;8.95;47.42;103595.81;5013907;28;20477;-51
2022/03/20 05:03:55;;;;;;;19.83;14.40;;;6.20;58.70;;;8.97;46.90;103596.56;5014590;28;20605;-52
2022/03/20 05:06:24;;;;;;;17.37;14.40;;;6.20;58.30;;;8.94;46.91;103588.84;5014838;28;20198;-50
2022/03/20 05:08:51;;;;;;;23.27;14.53;;;6.20;58.10;;;8.91;46.87;103588.22;5019667;28;20242;-50
2022/03/20 05:14:04;;;;;;;18.53;13.87;;;6.10;57.90;;;8.79;46.79;103580.13;5012424;28;20218;-52
2022/03/20 05:16:32;;;;;;;17.87;13.73;;;6.10;57.80;;;8.78;46.82;103580.22;5013119;28;20301;-51
2022/03/20 05:18:59;;;;;;;16.57;14.57;;;6.10;58.00;;;8.77;46.78;103575.94;5013563;28;20245;-52
2022/03/20 05:21:28;;;;;;;19.50;14.83;;;6.00;57.80;;;8.75;46.84;103572.53;5013510;28;20664;-53
2022/03/20 05:23:56;;;;;;;18.13;14.30;;;6.00;57.90;;;8.73;46.88;103569.16;5013094;28;20669;-51
2022/03/20 05:26:24;;;;;;;17.77;14.53;;;6.00;57.90;;;8.69;46.84;103562.41;5012839;28;20687;-53
2022/03/20 05:28:51;;;;;;;18.67;13.87;;;6.00;57.80;;;8.66;47.25;103563.44;5010793;28;20229;-50
2022/03/20 05:31:18;;;;;;;19.20;14.97;;;6.00;57.80;;;8.66;47.07;103562.59;4995452;28;20207;-51
2022/03/20 05:33:46;;;;;;;18.93;13.37;;;5.90;58.50;;;8.65;47.09;103560.91;5014295;28;20211;-50
2022/03/20 05:36:13;;;;;;;18.63;14.57;;;5.90;57.90;;;8.66;46.87;103557.34;5003603;28;20201;-53
2022/03/20 05:38:42;;;;;;;19.40;14.13;;;5.90;57.90;;;8.68;46.85;103555.47;4998218;28;20214;-53
2022/03/20 05:43:55;;;;;;;18.87;14.10;;;5.90;57.60;;;8.57;46.85;103542.16;5001574;28;20188;-50
2022/03/20 05:46:22;;;;;;;20.13;14.37;;;5.90;57.50;;;8.52;46.90;103544.19;4999908;28;20208;-51
2022/03/20 05:48:50;;;;;;;16.70;14.73;;;5.90;57.70;;;8.41;47.04;103529.13;4994723;28;20192;-49
2022/03/20 05:51:18;;;;;;;17.37;13.77;;;5.80;57.70;;;8.38;47.31;103525.81;4994223;28;20280;-51
2022/03/20 05:53:46;;;;;;;23.07;15.27;;;5.80;57.80;;;8.40;47.04;103531.81;4995719;28;20217;-49
2022/03/20 05:58:59;;;;;;;16.70;14.70;;;5.80;57.80;;;8.35;47.15;103531.22;4993813;28;20196;-50
2022/03/20 06:01:27;;;;;;;17.47;14.63;;;5.70;57.90;;;8.33;47.12;103522.63;4996505;28;20209;-52
2022/03/20 06:03:54;;;;;;;19.20;13.90;;;5.70;57.90;;;8.34;47.17;103519.06;4994723;28;20201;-49
2022/03/20 06:06:21;;;;;;;19.37;14.70;;;5.70;57.80;;;8.33;46.85;103517.38;4993010;28;20219;-48
2022/03/20 06:08:51;;;;;;;18.37;14.10;;;5.70;57.50;;;8.32;46.77;103520.94;4993441;28;20280;-51
2022/03/20 06:11:19;;;;;;;18.43;14.27;;;5.70;57.50;;;8.29;46.90;103511.47;5008240;28;20197;-50
2022/03/20 06:13:48;;;;;;;19.90;15.33;;;5.70;57.30;;;8.26;46.56;103519.50;4993425;28;20239;-51
2022/03/20 06:16:16;;;;;;;18.20;13.73;;;5.70;57.40;;;8.29;46.35;103515.88;4993349;28;20208;-50
2022/03/20 06:18:44;;;;;;;19.10;14.03;;;5.70;57.00;;;8.32;46.57;103513.88;4998255;28;20678;-50
2022/03/20 06:21:11;;;;;;;19.27;15.37;;;5.70;56.90;;;8.36;46.10;103525.06;4997000;28;20198;-51
2022/03/20 06:23:39;;;;;;;20.47;16.33;;;5.70;56.60;;;8.35;46.08;103513.72;4996906;28;20188;-51
2022/03/20 06:26:08;;;;;;;18.70;14.77;;;5.70;56.30;;;8.35;45.91;103524.22;4997659;28;20196;-52
2022/03/20 06:28:37;;;;;;;16.93;13.93;;;5.70;56.20;;;8.39;46.00;103517.00;4997289;28;20208;-52
2022/03/20 06:31:10;;;;;;;18.83;14.10;;;5.70;56.20;;;8.44;45.70;103504.47;4997531;28;20215;-49
2022/03/20 06:33:55;;;;;;;19.73;14.87;;;5.80;56.00;;;8.47;45.25;103515.59;5016883;28;20291;-50
2022/03/20 06:36:23;;;;;;;19.10;15.33;;;5.80;55.70;;;8.49;45.22;103512.88;5000959;28;20250;-51
2022/03/20 06:38:51;;;;;;;17.93;14.23;;;5.80;55.50;;;8.49;45.01;103507.63;4998144;28;20193;-51
2022/03/20 06:41:19;;;;;;;19.80;15.53;;;5.90;55.30;;;8.56;45.01;103493.19;4999415;28;20205;-49
2022/03/20 06:43:47;;;;;;;17.73;14.73;;;5.90;55.20;;;8.60;44.59;103505.22;4999524;28;20216;-50
2022/03/20 06:46:14;;;;;;;20.03;14.77;;;5.90;54.80;;;8.60;44.43;103505.22;4997817;28;20214;-52
2022/03/20 06:48:57;;;;;;;19.07;14.83;;;5.90;54.40;;;8.61;43.96;103499.00;4997676;28;20188;-51
2022/03/20 06:51:24;;;;;;;19.27;15.20;;;6.00;54.00;;;8.62;43.81;103498.09;4998701;28;20196;-49
2022/03/20 06:53:52;;;;;;;20.43;15.57;;;6.00;53.80;;;8.71;43.90;103493.13;4996160;28;20204;-52
2022/03/20 06:56:21;;;;;;;23.67;15.67;;;6.10;53.90;;;8.78;43.56;103485.69;4995788;28;20196;-51
2022/03/20 06:58:48;;;;;;;19.03;15.73;;;6.10;53.40;;;8.84;43.46;103495.84;4996282;28;20301;-51
2022/03/20 07:01:15;;;;;;;19.30;14.63;;;6.10;53.30;;;8.93;43.15;103487.38;4997753;28;20279;-51
2022/03/20 07:03:43;;;;;;;21.60;16.33;;;6.20;52.70;;;8.99;42.31;103481.75;5015587;28;20230;-50
2022/03/20 07:06:10;;;;;;;19.53;14.73;;;6.30;52.30;;;9.16;42.23;103472.78;5015368;28;20209;-51
2022/03/20 07:08:37;;;;;;;18.43;14.03;;;6.40;52.40;;;9.30;41.87;103465.72;5002884;28;20529;-50
2022/03/20 07:11:05;;;;;;;18.63;15.47;;;6.50;51.70;;;9.51;41.14;103463.47;4996160;28;20206;-51
2022/03/20 07:13:48;;;;;;;18.00;14.57;;;6.70;51.00;;;9.84;40.78;103465.69;4995898;28;20604;-51
2022/03/20 07:16:17;;;;;;;19.20;15.60;;;6.90;50.80;;;10.16;39.19;103459.09;4995507;28;20207;-50
2022/03/20 07:18:47;;;;;;;19.77;15.33;;;7.20;49.70;;;10.50;38.77;103461.13;4995470;28;20727;-52
2022/03/20 07:21:18;;;;;;;16.67;14.03;;;7.50;48.80;;;10.89;37.75;103463.56;4995740;28;20222;-51
2022/03/20 07:23:46;;;;;;;16.97;15.17;;;7.80;47.90;;;11.27;37.53;103462.59;5000588;28;20188;-50
2022/03/20 07:31:48;;;;;;;20.07;14.67;;;8.80;44.70;;;12.62;34.87;103445.22;5015896;28;20210;-50
2022/03/20 07:34:16;;;;;;;19.17;14.87;;;9.20;43.50;;;12.96;33.71;103446.00;5017796;28;20219;-50
2022/03/20 07:36:43;;;;;;;19.20;15.37;;;9.50;42.20;;;13.20;33.16;103436.13;5015493;28;20302;-49
2022/03/20 07:39:15;;;;;;;16.67;14.07;;;9.80;41.40;;;13.43;32.49;103427.97;5014677;28;20206;-52
2022/03/20 07:41:42;;;;;;;17.40;14.53;;;10.10;39.40;;;13.72;32.26;103428.19;4995513;28;20199;-51
2022/03/20 07:44:11;;;;;;;15.30;13.70;;;10.30;38.90;;;14.08;31.29;103434.84;4995422;28;20192;-51
2022/03/20 07:46:41;;;;;;;17.07;14.57;;;10.60;38.20;;;14.27;30.95;103434.94;4994711;28;20212;-54
2022/03/20 07:49:09;;;;;;;15.60;13.80;;;10.80;37.00;;;14.47;30.42;103426.16;4995274;28;20187;-50
2022/03/20 07:51:36;;;;;;;18.23;15.03;;;11.10;36.40;;;14.67;30.14;103425.22;4995201;28;20258;-51
2022/03/20 07:54:04;;;;;;;16.30;14.27;;;11.30;36.00;;;14.85;29.81;103426.28;4994633;28;20303;-51
2022/03/20 07:56:35;;;;;;;19.43;15.73;;;11.50;35.80;;;15.02;29.58;103418.63;4994359;28;20216;-52
2022/03/20 07:59:06;;;;;;;16.60;14.53;;;11.60;34.80;;;15.31;28.88;103412.34;4995527;28;20203;-51
2022/03/20 08:01:36;;;;;;;15.77;14.17;;;11.80;34.50;;;15.76;28.55;103417.94;4999054;28;20234;-54
2022/03/20 08:04:05;;;;;;;18.27;14.50;;;12.00;34.50;;;16.14;27.82;103412.53;5014959;28;20202;-54
2022/03/20 08:06:32;;;;;;;17.23;14.53;;;12.20;33.30;;;16.41;27.26;103421.50;5014033;28;20211;-54
2022/03/20 08:09:00;;;;;;;16.27;14.57;;;12.50;32.90;;;16.64;26.88;103426.31;5014516;28;20206;-50
2022/03/20 08:11:29;;;;;;;15.67;13.60;;;12.70;32.60;;;17.06;27.03;103424.00;5014642;28;20278;-51
2022/03/20 08:14:00;;;;;;;15.57;13.30;;;13.00;33.50;;;17.62;26.78;103425.50;4995149;28;20215;-52
2022/03/20 08:16:29;;;;;;;16.30;14.47;;;13.30;32.90;;;18.15;25.89;103416.41;4994561;28;20222;-52
2022/03/20 08:18:58;;;;;;;16.77;15.07;;;13.70;32.30;;;18.56;25.10;103406.78;4995084;28;20693;-52
2022/03/20 08:21:25;;;;;;;17.73;15.03;;;14.00;30.50;;;18.91;24.28;103416.38;4998709;28;20192;-53
2022/03/20 08:23:53;;;;;;;18.77;15.83;;;14.40;29.80;;;19.04;23.85;103413.25;4997942;28;20239;-53
2022/03/20 08:26:20;;;;;;;16.40;14.60;;;14.60;28.90;;;19.30;23.35;103424.63;4997698;28;20296;-53
2022/03/20 08:28:48;;;;;;;17.13;15.33;;;14.90;28.60;;;19.64;23.39;103405.78;5008385;28;20194;-52
2022/03/20 08:31:15;;;;;;;16.97;14.50;;;15.10;28.40;;;19.96;22.60;103395.88;5017123;28;20198;-52
2022/03/20 08:33:43;;;;;;;17.40;14.77;;;15.40;28.10;;;20.25;22.17;103382.75;5017240;28;20191;-51
2022/03/20 08:36:13;;;;;;;18.17;15.53;;;15.70;27.40;;;20.37;21.37;103380.56;5005521;28;20206;-52
2022/03/20 08:38:41;;;;;;;19.47;15.93;;;15.90;26.60;;;20.59;21.71;103377.09;4997431;28;20215;-52
2022/03/20 08:41:08;;;;;;;20.10;16.17;;;16.20;26.70;;;20.82;20.99;103371.78;4994564;28;20199;-53
2022/03/20 08:43:36;;;;;;;17.77;15.87;;;16.30;26.00;;;20.97;21.37;103367.31;4997071;28;20195;-52
2022/03/20 08:46:03;;;;;;;17.17;15.47;;;16.50;25.90;;;21.24;20.94;103364.13;4995905;28;20580;-51
2022/03/20 08:48:31;;;;;;;18.30;16.40;;;16.70;26.20;;;21.62;20.46;103369.47;4995512;28;20318;-51
2022/03/20 08:50:58;;;;;;;18.53;16.47;;;17.00;26.30;;;21.93;20.11;103368.34;4994837;28;20195;-53
2022/03/20 08:53:29;;;;;;;17.30;15.60;;;17.30;25.50;;;22.32;20.05;103351.94;4995553;28;20196;-53
2022/03/20 08:55:56;;;;;;;21.30;18.40;;;17.60;25.30;;;22.63;19.48;103349.84;4996615;28;20227;-51
2022/03/20 08:58:23;;;;;;;20.17;16.00;;;17.90;24.50;;;22.83;19.57;103350.88;4994447;28;20211;-52
2022/03/20 09:00:51;;;;;;;18.27;16.47;;;18.10;24.60;;;23.15;18.96;103340.66;5000254;28;20237;-53
2022/03/20 09:03:18;;;;;;;17.87;16.07;;;18.40;23.90;;;23.41;18.85;103347.09;5015757;28;20199;-54
2022/03/20 09:05:46;;;;;;;20.23;17.77;;;18.60;23.70;;;23.60;18.49;103340.19;5029106;28;20237;-53
2022/03/20 09:08:13;;;;;;;18.43;16.60;;;18.90;23.50;;;23.64;18.20;103338.75;5013196;28;20214;-53
2022/03/20 09:10:42;;;;;;;19.20;17.13;;;19.00;22.80;;;23.91;18.22;103342.44;5013619;28;20198;-52
2022/03/20 09:13:10;;;;;;;18.53;16.63;;;19.20;22.80;;;24.24;18.49;103340.78;5013649;28;20194;-52
2022/03/20 09:15:37;;;;;;;19.03;17.07;;;19.50;23.10;;;24.58;17.26;103334.47;5013203;28;20222;-53
2022/03/20 09:20:50;;;;;;;18.53;16.53;;;20.00;22.30;;;25.21;16.84;103317.75;4993702;28;20588;-54
2022/03/20 09:23:18;;;;;;;19.73;17.83;;;20.20;21.90;;;25.31;15.75;103301.16;4993688;28;20191;-56
2022/03/20 09:25:46;;;;;;;19.03;17.10;;;20.40;20.50;;;25.33;16.08;103299.91;5013475;28;20187;-54
2022/03/20 09:28:14;;;;;;;18.93;16.30;;;20.50;20.60;;;25.51;16.41;103292.00;5012591;28;20566;-53
2022/03/20 09:30:42;;;;;;;17.73;15.93;;;20.70;20.50;;;25.74;16.58;103290.72;5013048;28;20210;-53
2022/03/20 09:33:10;;;;;;;17.93;16.07;;;20.90;20.80;;;25.91;15.68;103281.09;5013293;28;20249;-55
2022/03/20 09:35:39;;;;;;;19.77;17.60;;;21.00;20.20;;;26.08;16.00;103276.84;5013117;28;20249;-53
2022/03/20 09:38:09;;;;;;;17.90;16.20;;;21.10;19.90;;;25.89;14.93;103289.41;5012136;28;20218;-54
2022/03/20 09:40:38;;;;;;;18.27;16.37;;;21.10;19.10;;;25.77;15.18;103283.00;5013329;28;20188;-54
2022/03/20 09:43:09;;;;;;;18.27;16.13;;;21.20;19.10;;;25.87;15.03;103293.34;5011833;28;20195;-53
2022/03/20 09:45:38;;;;;;;18.70;16.73;;;21.30;19.10;;;25.88;15.32;103271.56;5012995;28;20656;-54
2022/03/20 09:48:08;;;;;;;17.37;15.67;;;21.30;18.90;;;26.01;14.91;103263.38;5012901;28;20241;-56
2022/03/20 09:50:37;;;;;;;18.03;16.33;;;21.40;19.20;;;26.08;14.33;103260.66;5012954;28;20188;-54
2022/03/20 09:53:04;;;;;;;17.77;15.83;;;21.40;18.50;;;26.19;15.20;103268.97;5016230;28;20199;-55
2022/03/20 09:55:31;;;;;;;17.97;16.27;;;21.50;18.70;;;26.48;14.65;103267.50;5014974;28;20219;-52
2022/03/20 09:57:59;;;;;;;18.10;16.40;;;21.60;18.90;;;26.69;14.39;103267.16;5016618;28;20310;-54
2022/03/20 10:00:28;;;;;;;16.80;15.17;;;21.70;18.80;;;26.89;14.85;103263.50;5016741;28;20273;-55
2022/03/20 10:02:55;;;;;;;18.27;16.47;;;21.90;18.60;;;27.05;13.60;103279.16;5016529;28;20206;-52
2022/03/20 10:05:28;;;;;;;17.20;15.47;;;22.00;17.80;;;27.07;13.49;103256.25;5016776;28;20275;-55
2022/03/20 10:08:10;;;;;;;17.73;15.87;;;22.20;17.70;;;26.89;13.98;103252.69;5016209;28;20323;-55
2022/03/20 10:10:37;;;;;;;15.73;14.23;;;22.30;17.80;;;27.03;13.98;103238.81;5024765;28;20203;-55
2022/03/20 10:13:13;;;;;;;18.13;16.17;;;22.40;18.10;;;27.37;13.68;103240.13;4996849;28;20554;-56
2022/03/20 10:15:44;;;;;;;16.50;14.90;;;22.50;17.70;;;27.51;13.82;103241.66;4996772;28;20698;-51
2022/03/20 10:18:17;;;;;;;16.40;14.80;;;22.70;17.40;;;27.39;13.09;103246.16;4996456;28;20643;-56
2022/03/20 10:20:47;;;;;;;18.00;16.30;;;22.70;16.70;;;27.42;13.74;103216.78;4997075;28;20198;-55
2022/03/20 10:23:32;;;;;;;16.87;15.17;;;22.80;17.50;;;27.97;13.90;103224.84;4996505;28;20542;-56
2022/03/20 10:26:04;;;;;;;15.20;13.70;;;23.00;18.00;;;28.09;12.50;103204.06;4996822;28;20554;-53
2022/03/20 10:28:37;;;;;;;15.10;13.70;;;23.10;16.10;;;27.72;12.04;103194.38;5015033;28;20226;-55
2022/03/20 10:31:09;;;;;;;14.87;13.40;;;23.10;15.30;;;27.52;12.88;103216.25;5016693;28;20197;-53
2022/03/20 10:33:41;;;;;;;16.67;13.90;;;23.20;15.30;;;27.18;12.71;103185.19;4998010;28;20199;-53
2022/03/20 10:36:11;;;;;;;15.53;13.60;;;23.10;15.00;;;26.78;12.21;103173.97;4998568;28;20235;-54
2022/03/20 10:38:41;;;;;;;14.63;13.13;;;22.90;14.80;;;26.74;12.26;103170.00;4998143;28;20215;-56
2022/03/20 10:41:23;;;;;;;14.40;13.10;;;22.90;15.00;;;27.08;12.78;103175.94;5000514;28;20226;-56
2022/03/20 10:43:53;;;;;;;14.47;12.97;;;22.90;15.40;;;27.59;13.00;103176.41;5009319;28;20199;-56
2022/03/20 10:46:25;;;;;;;13.93;12.63;;;23.10;15.60;;;28.00;12.50;103171.06;5015565;28;20188;-55
2022/03/20 10:48:55;;;;;;;14.10;12.60;;;23.30;15.30;;;28.33;11.88;103148.03;5016032;28;20197;-55